Terminal Aerodrome Forecast
Issued by NWS

Home | Current Version | Previous Version | Text Only | Print | Product List | Glossary Off
Versions: 1 2 3 4 5 6 7 8 9 10 11 12 13 14 15 16

000
FTUS43 KDLH 241700
TAFBRD
TAF
KBRD 241732Z 2418/2518 21010KT P6SM FEW150
     FM242100 24011KT P6SM FEW100
     FM250300 27009KT P6SM FEW100
      TEMPO 2503/2505 28012G22KT
     FM250500 29010KT P6SM SKC=

USA.gov is the U.S. government's official web portal to all federal, state and local government web resources and services.